Jones Prairie, Texas
Current Conditions -  °F | °C
As of 6:15 AM on Sunday 25 Jan 2015 (Local Time) from KT35 Reporting Station
Clear Clear  
Wind Chill: 39°   Ceiling: Unl
Heat Index: 43°   Visibility: 10mi
Dew Point: 37°   Wind: 7mph
Humidity: 79%   Direction: 220°SW
Pressure: 29.99"   Gusts: NA
Location:  30.8332°N, 96.9826°W
Report Text: KT35 251215Z AUTO 22006KT 10SM CLR 06/03 A2999 RMK AO2 T00600026
Loading
Personal Weather Stations






























Interactive Weather Map New forecast layout! Learn more

10-Day Weather Forecast

Advertisements
Track Severe Weather on mobile